createdAt,value
2023-03-15T00:01:28.729Z,60.18
2023-03-15T00:03:57.807Z,59.68
2023-03-15T00:06:26.040Z,60.51
2023-03-15T00:08:54.639Z,59.49
2023-03-15T00:11:26.827Z,59.23
2023-03-15T00:14:00.306Z,60.56
2023-03-15T00:16:28.254Z,59.80
2023-03-15T00:19:03.321Z,59.55
2023-03-15T00:21:31.943Z,59.83
2023-03-15T00:23:59.780Z,60.58
2023-03-15T00:26:29.647Z,60.93
2023-03-15T00:28:58.217Z,61.13
2023-03-15T00:31:32.702Z,61.07
2023-03-15T00:34:00.885Z,60.86
2023-03-15T00:36:29.474Z,61.70
2023-03-15T00:38:58.050Z,61.79
2023-03-15T00:41:26.741Z,62.25
2023-03-15T00:43:56.098Z,62.11
2023-03-15T00:46:24.585Z,61.43
2023-03-15T00:48:52.960Z,62.17
2023-03-15T00:51:22.389Z,61.63
2023-03-15T00:53:52.723Z,61.65
2023-03-15T00:56:26.885Z,62.35
2023-03-15T00:58:56.386Z,63.15
2023-03-15T01:01:28.379Z,62.89
2023-03-15T01:03:57.382Z,63.67
2023-03-15T01:06:27.711Z,63.51
2023-03-15T01:08:57.218Z,62.71
2023-03-15T01:11:27.543Z,63.67
2023-03-15T01:13:57.777Z,63.81
2023-03-15T01:16:27.862Z,62.85
2023-03-15T01:18:56.831Z,63.15
2023-03-15T01:21:24.881Z,63.02
2023-03-15T01:23:54.302Z,62.94
2023-03-15T01:26:24.531Z,62.95
2023-03-15T01:28:52.832Z,63.26
2023-03-15T01:31:23.292Z,63.77
2023-03-15T01:33:52.061Z,63.64
2023-03-15T01:36:20.400Z,63.83
2023-03-15T01:38:49.936Z,64.17
2023-03-15T01:41:22.501Z,63.19
2023-03-15T01:43:51.246Z,63.64
2023-03-15T01:46:35.298Z,63.40
2023-03-15T01:49:23.208Z,63.96
2023-03-15T01:52:07.628Z,63.15
2023-03-15T01:54:59.919Z,62.99
2023-03-15T01:57:46.374Z,63.14
2023-03-15T02:00:16.896Z,63.58
2023-03-15T02:03:27.283Z,63.65
2023-03-15T02:06:01.659Z,63.84
2023-03-15T02:08:56.750Z,64.25
2023-03-15T02:11:26.735Z,63.94
2023-03-15T02:13:58.454Z,63.67
2023-03-15T02:16:26.939Z,64.53
2023-03-15T02:19:00.737Z,63.79
2023-03-15T02:22:09.842Z,63.67
2023-03-15T02:24:53.094Z,62.88
2023-03-15T02:27:30.931Z,63.18
2023-03-15T02:30:00.230Z,61.57
2023-03-15T02:32:30.501Z,61.76
2023-03-15T02:34:58.993Z,62.02
2023-03-15T02:37:26.979Z,61.69
2023-03-15T02:39:56.128Z,61.23
2023-03-15T02:42:25.141Z,61.00
2023-03-15T02:44:55.071Z,61.15
2023-03-15T02:47:25.825Z,60.74
2023-03-15T02:49:54.127Z,61.59
2023-03-15T02:52:22.723Z,61.34
2023-03-15T02:54:51.341Z,61.85
2023-03-15T02:57:19.929Z,60.87
2023-03-15T02:59:51.206Z,61.14
2023-03-15T03:02:26.376Z,61.98
2023-03-15T03:04:54.964Z,61.75
2023-03-15T03:07:23.838Z,61.49
2023-03-15T03:10:02.686Z,62.32
2023-03-15T03:12:39.855Z,62.66
2023-03-15T03:15:10.614Z,62.54
2023-03-15T03:17:40.253Z,62.69
2023-03-15T03:20:10.601Z,62.78
2023-03-15T03:22:45.213Z,62.49
2023-03-15T03:25:13.698Z,62.44
2023-03-15T03:27:41.821Z,61.73
2023-03-15T03:30:12.797Z,62.51
2023-03-15T03:32:44.963Z,62.79
2023-03-15T03:35:16.226Z,62.90
2023-03-15T03:37:44.888Z,63.30
2023-03-15T03:40:20.447Z,63.49
2023-03-15T03:42:49.812Z,63.76
2023-03-15T03:45:22.199Z,62.64
2023-03-15T03:47:55.567Z,63.50
2023-03-15T03:50:23.676Z,62.80
2023-03-15T03:52:56.182Z,63.61
2023-03-15T03:55:28.577Z,63.69
2023-03-15T03:57:57.123Z,63.01
2023-03-15T04:00:57.403Z,63.16
2023-03-15T04:03:28.785Z,63.35
2023-03-15T04:06:06.027Z,63.21
2023-03-15T04:08:39.358Z,63.69
2023-03-15T04:11:09.355Z,62.73
2023-03-15T04:13:41.729Z,62.38
2023-03-15T04:16:10.514Z,63.17
2023-03-15T04:18:56.558Z,62.53
2023-03-15T04:21:25.690Z,62.48
2023-03-15T04:24:00.180Z,62.07
2023-03-15T04:26:47.027Z,61.62
2023-03-15T04:29:34.775Z,60.98
2023-03-15T04:32:19.113Z,60.77
2023-03-15T04:34:56.289Z,60.96
2023-03-15T04:37:38.162Z,60.58
2023-03-15T04:40:20.470Z,60.07
2023-03-15T04:43:09.028Z,59.96
2023-03-15T04:45:52.159Z,60.04
2023-03-15T04:48:37.336Z,60.39
2023-03-15T04:51:12.449Z,60.25
2023-03-15T04:53:51.079Z,60.22
2023-03-15T04:56:37.783Z,59.81
2023-03-15T04:59:25.064Z,59.74
2023-03-15T05:02:12.776Z,59.34
2023-03-15T05:05:01.810Z,59.82
2023-03-15T05:08:49.150Z,59.58
2023-03-15T05:12:31.524Z,59.35
2023-03-15T05:16:14.599Z,59.38
2023-03-15T05:19:04.314Z,59.65
2023-03-15T05:22:02.597Z,59.19
2023-03-15T05:24:57.875Z,59.12
2023-03-15T05:27:53.226Z,59.18
2023-03-15T05:30:36.680Z,58.29
2023-03-15T05:33:27.495Z,58.16
2023-03-15T05:36:32.028Z,57.90
2023-03-15T05:39:23.241Z,57.84
2023-03-15T05:41:57.526Z,58.37
2023-03-15T05:44:37.713Z,57.65
2023-03-15T05:47:33.220Z,57.86
2023-03-15T05:50:02.761Z,58.06
2023-03-15T05:52:46.445Z,57.49
2023-03-15T05:55:40.067Z,57.09
2023-03-15T05:58:30.896Z,56.78
2023-03-15T06:01:08.397Z,56.26
2023-03-15T06:04:00.903Z,56.51
2023-03-15T06:06:34.033Z,56.36
2023-03-15T06:09:04.608Z,55.81
2023-03-15T06:11:34.762Z,53.92
2023-03-15T06:14:04.542Z,54.77
2023-03-15T06:16:53.702Z,54.57
2023-03-15T06:19:25.297Z,54.63
2023-03-15T06:21:55.510Z,54.44
2023-03-15T06:24:32.499Z,54.21
2023-03-15T06:27:01.886Z,53.75
2023-03-15T06:29:30.431Z,54.08
2023-03-15T06:32:00.912Z,53.32
2023-03-15T06:34:30.494Z,53.43
2023-03-15T06:37:02.066Z,53.32
2023-03-15T06:39:34.894Z,53.72
2023-03-15T06:42:04.755Z,53.10
2023-03-15T06:44:37.592Z,53.89
2023-03-15T06:47:10.070Z,52.87
2023-03-15T06:49:42.315Z,53.23
2023-03-15T06:52:12.783Z,53.45
2023-03-15T06:54:40.760Z,52.99
2023-03-15T06:57:10.325Z,52.56
2023-03-15T06:59:38.877Z,52.38
2023-03-15T07:02:08.420Z,52.35
2023-03-15T07:04:37.610Z,52.51
2023-03-15T07:07:05.445Z,52.96
2023-03-15T07:09:33.760Z,52.25
2023-03-15T07:12:02.217Z,52.79
2023-03-15T07:14:30.789Z,53.26
2023-03-15T07:16:58.678Z,52.47
2023-03-15T07:19:27.149Z,52.40
2023-03-15T07:21:57.707Z,52.07
2023-03-15T07:24:27.529Z,51.73
2023-03-15T07:26:56.949Z,52.26
2023-03-15T07:29:25.831Z,51.39
2023-03-15T07:31:54.104Z,52.44
2023-03-15T07:34:23.038Z,52.23
2023-03-15T07:36:51.197Z,52.68
2023-03-15T07:39:20.813Z,53.05
2023-03-15T07:41:50.625Z,51.96
2023-03-15T07:44:24.227Z,52.20
2023-03-15T07:46:52.106Z,52.44
2023-03-15T07:49:21.065Z,52.73
2023-03-15T07:51:49.026Z,51.47
2023-03-15T07:54:17.017Z,51.03
2023-03-15T07:56:46.205Z,52.54
2023-03-15T07:59:14.097Z,51.28
2023-03-15T08:01:44.378Z,50.99
2023-03-15T08:04:13.436Z,51.04
2023-03-15T08:06:47.267Z,51.12
2023-03-15T08:09:15.083Z,51.75
2023-03-15T08:11:44.655Z,51.32
2023-03-15T08:14:14.172Z,51.20
2023-03-15T08:16:44.107Z,52.36
2023-03-15T08:19:18.351Z,53.27
2023-03-15T08:21:49.149Z,51.22
2023-03-15T08:24:17.152Z,51.92
2023-03-15T08:26:46.328Z,51.78
2023-03-15T08:29:16.143Z,52.00
2023-03-15T08:31:44.289Z,51.48
2023-03-15T08:34:12.796Z,52.23
2023-03-15T08:36:56.563Z,51.34
2023-03-15T08:39:25.051Z,51.56
2023-03-15T08:41:54.214Z,51.29
2023-03-15T08:44:27.523Z,51.12
2023-03-15T08:46:56.100Z,52.32
2023-03-15T08:49:24.912Z,51.66
2023-03-15T08:51:56.168Z,51.34
2023-03-15T08:54:24.368Z,51.08
2023-03-15T08:56:55.810Z,50.79
2023-03-15T08:59:31.828Z,52.21
2023-03-15T09:02:02.248Z,50.52
2023-03-15T09:04:34.311Z,51.41
2023-03-15T09:07:02.641Z,53.42
2023-03-15T09:09:37.742Z,50.83
2023-03-15T09:12:06.327Z,51.62
2023-03-15T09:14:34.372Z,50.71
2023-03-15T09:17:06.360Z,50.57
2023-03-15T09:19:34.753Z,50.59
2023-03-15T09:22:17.006Z,51.76
2023-03-15T09:24:52.887Z,50.40
2023-03-15T09:27:21.145Z,50.39
2023-03-15T09:29:50.359Z,51.82
2023-03-15T09:32:18.850Z,51.17
2023-03-15T09:34:46.722Z,49.91
2023-03-15T09:37:14.576Z,50.20
2023-03-15T09:39:43.406Z,51.16
2023-03-15T09:42:18.858Z,49.64
2023-03-15T09:45:01.109Z,49.94
2023-03-15T09:47:51.927Z,50.69
2023-03-15T09:50:36.039Z,50.59
2023-03-15T09:53:09.594Z,49.94
2023-03-15T09:55:38.740Z,49.51
2023-03-15T09:58:13.087Z,50.81
2023-03-15T10:01:13.768Z,48.93
2023-03-15T10:03:51.398Z,51.09
2023-03-15T10:06:29.839Z,48.75
2023-03-15T10:08:58.998Z,48.38
2023-03-15T10:12:05.848Z,49.00
2023-03-15T10:15:05.524Z,49.55
2023-03-15T10:17:52.405Z,49.25
2023-03-15T10:20:42.169Z,48.66
2023-03-15T10:23:13.239Z,48.78
2023-03-15T10:25:41.462Z,48.72
2023-03-15T10:28:31.323Z,49.81
2023-03-15T10:31:13.867Z,49.78
2023-03-15T10:33:50.498Z,47.71
2023-03-15T10:36:23.740Z,50.32
2023-03-15T10:38:51.812Z,48.99
2023-03-15T10:41:46.841Z,48.37
2023-03-15T10:44:26.718Z,48.44
2023-03-15T10:47:16.096Z,49.80
2023-03-15T10:49:58.596Z,48.30
2023-03-15T10:52:35.780Z,49.41
2023-03-15T10:55:12.047Z,48.07
2023-03-15T10:57:42.654Z,49.06
2023-03-15T11:00:43.999Z,50.24
2023-03-15T11:03:23.097Z,49.10
2023-03-15T11:05:55.222Z,49.55
2023-03-15T11:08:37.671Z,47.22
2023-03-15T11:11:05.744Z,48.64
2023-03-15T11:13:41.129Z,48.81
2023-03-15T11:16:15.476Z,48.29
2023-03-15T11:19:17.131Z,47.49
2023-03-15T11:21:45.885Z,47.92
2023-03-15T11:24:27.205Z,47.84
2023-03-15T11:26:56.984Z,47.52
2023-03-15T11:29:33.236Z,46.87
2023-03-15T11:32:02.744Z,47.12
2023-03-15T11:34:39.516Z,47.83
2023-03-15T11:37:21.706Z,46.71
2023-03-15T11:40:11.602Z,48.16
2023-03-15T11:42:58.235Z,47.24
2023-03-15T11:45:36.533Z,46.55
2023-03-15T11:48:27.173Z,46.57
2023-03-15T11:50:55.534Z,46.80
2023-03-15T11:53:25.545Z,46.49
2023-03-15T11:55:54.653Z,46.67
2023-03-15T11:58:35.869Z,47.34
2023-03-15T12:01:04.317Z,45.58
2023-03-15T12:03:35.596Z,46.30
2023-03-15T12:06:21.500Z,47.08
2023-03-15T12:09:13.483Z,48.16
2023-03-15T12:11:45.822Z,46.73
2023-03-15T12:14:43.829Z,45.77
2023-03-15T12:17:29.719Z,47.92
2023-03-15T12:20:12.404Z,46.00
2023-03-15T12:22:43.862Z,45.26
2023-03-15T12:25:17.007Z,45.12
2023-03-15T12:27:51.365Z,44.85
2023-03-15T12:30:30.386Z,44.34
2023-03-15T12:32:58.664Z,45.10
2023-03-15T12:35:30.521Z,43.78
2023-03-15T12:37:58.974Z,45.72
2023-03-15T12:40:39.341Z,43.73
2023-03-15T12:43:08.488Z,44.40
2023-03-15T12:45:41.807Z,44.05
2023-03-15T12:48:13.016Z,44.79
2023-03-15T12:51:04.614Z,44.09
2023-03-15T12:53:37.472Z,44.31
2023-03-15T12:56:42.345Z,46.23
2023-03-15T12:59:49.129Z,44.57
2023-03-15T13:02:41.843Z,45.06
2023-03-15T13:05:47.078Z,45.86
2023-03-15T13:08:17.346Z,45.93
2023-03-15T13:11:15.181Z,44.47
2023-03-15T13:14:14.262Z,45.33
2023-03-15T13:17:02.372Z,45.71
2023-03-15T13:19:38.500Z,46.57
2023-03-15T13:22:15.243Z,46.14
2023-03-15T13:24:50.076Z,46.72
2023-03-15T13:27:36.772Z,46.33
2023-03-15T13:30:36.791Z,46.24
2023-03-15T13:33:08.653Z,45.60
2023-03-15T13:35:48.401Z,45.99
2023-03-15T13:38:45.676Z,46.92
2023-03-15T13:41:23.399Z,46.34
2023-03-15T13:43:53.247Z,46.21
2023-03-15T13:46:25.703Z,47.70
2023-03-15T13:48:54.717Z,47.40
2023-03-15T13:51:31.176Z,46.94
2023-03-15T13:54:07.201Z,46.30
2023-03-15T13:56:48.522Z,45.85
2023-03-15T13:59:18.116Z,45.33
2023-03-15T14:01:46.938Z,45.61
2023-03-15T14:04:17.389Z,45.31
2023-03-15T14:06:48.014Z,45.46
2023-03-15T14:09:29.212Z,45.80
2023-03-15T14:12:19.751Z,45.95
2023-03-15T14:14:53.304Z,45.65
2023-03-15T14:17:27.454Z,46.20
2023-03-15T14:20:07.217Z,45.74
2023-03-15T14:22:36.812Z,46.59
2023-03-15T14:25:19.636Z,46.13
2023-03-15T14:27:48.137Z,45.50
2023-03-15T14:30:23.652Z,45.56
2023-03-15T14:32:53.674Z,45.14
2023-03-15T14:35:25.587Z,45.54
2023-03-15T14:38:20.174Z,45.16
2023-03-15T14:40:48.951Z,45.06
2023-03-15T14:43:17.055Z,44.82
2023-03-15T14:45:48.709Z,44.96
2023-03-15T14:48:30.232Z,45.57
2023-03-15T14:50:57.871Z,45.36
2023-03-15T14:53:26.412Z,45.86
2023-03-15T14:55:56.605Z,45.73
2023-03-15T14:58:25.142Z,45.97
2023-03-15T15:00:56.061Z,45.82
2023-03-15T15:03:32.176Z,46.07
2023-03-15T15:06:01.105Z,46.81
2023-03-15T15:08:28.996Z,46.74
2023-03-15T15:10:57.033Z,46.34
2023-03-15T15:13:27.037Z,46.28
2023-03-15T15:15:56.709Z,46.56
2023-03-15T15:18:25.903Z,46.73
2023-03-15T15:20:56.396Z,47.17
2023-03-15T15:23:30.654Z,47.46
2023-03-15T15:26:06.086Z,47.58
2023-03-15T15:28:37.177Z,47.82
2023-03-15T15:31:07.652Z,48.41
2023-03-15T15:33:35.777Z,48.64
2023-03-15T15:36:10.414Z,49.39
2023-03-15T15:38:40.615Z,50.05
2023-03-15T15:41:47.652Z,50.03
2023-03-15T15:44:20.551Z,50.61
2023-03-15T15:46:49.113Z,49.75
2023-03-15T15:49:17.230Z,49.70
2023-03-15T15:51:49.284Z,50.21
2023-03-15T15:54:19.296Z,49.95
2023-03-15T15:56:52.644Z,49.82
2023-03-15T15:59:20.643Z,50.42
2023-03-15T16:02:00.132Z,50.37
2023-03-15T16:04:29.900Z,50.86
2023-03-15T16:07:02.213Z,50.22
2023-03-15T16:09:32.712Z,50.11
2023-03-15T16:12:04.104Z,50.37
2023-03-15T16:14:33.001Z,49.96
2023-03-15T16:17:01.657Z,50.07
2023-03-15T16:19:31.758Z,50.30
2023-03-15T16:22:00.463Z,51.22
2023-03-15T16:24:30.541Z,53.29
2023-03-15T16:27:03.877Z,52.43
2023-03-15T16:29:39.848Z,52.46
2023-03-15T16:32:18.008Z,52.67
2023-03-15T16:34:48.544Z,53.46
2023-03-15T16:37:35.222Z,53.88
2023-03-15T16:40:10.492Z,55.34
2023-03-15T16:42:39.546Z,55.01
2023-03-15T16:45:14.566Z,56.44
2023-03-15T16:47:42.942Z,56.62
2023-03-15T16:50:11.774Z,57.31
2023-03-15T16:52:42.586Z,56.85
2023-03-15T16:55:15.658Z,57.42
2023-03-15T16:57:47.354Z,57.76
2023-03-15T17:00:20.911Z,59.13
2023-03-15T17:02:53.442Z,60.07
2023-03-15T17:05:24.690Z,61.11
2023-03-15T17:07:54.077Z,61.15
2023-03-15T17:10:32.365Z,61.69
2023-03-15T17:13:03.356Z,62.39
2023-03-15T17:15:32.927Z,62.48
2023-03-15T17:18:02.945Z,62.76
2023-03-15T17:20:38.307Z,62.90
2023-03-15T17:23:07.805Z,62.78
2023-03-15T17:25:36.023Z,63.25
2023-03-15T17:28:06.253Z,63.92
2023-03-15T17:30:36.049Z,63.68
2023-03-15T17:33:05.628Z,63.77
2023-03-15T17:35:39.154Z,64.43
2023-03-15T17:38:07.570Z,64.67
2023-03-15T17:40:36.489Z,65.29
2023-03-15T17:43:04.726Z,65.70
2023-03-15T17:45:33.474Z,66.31
2023-03-15T17:48:01.854Z,66.75
2023-03-15T17:50:32.315Z,67.20
2023-03-15T17:53:02.523Z,67.80
2023-03-15T17:55:34.692Z,67.85
2023-03-15T17:58:06.326Z,68.51
2023-03-15T18:00:34.486Z,69.38
2023-03-15T18:03:02.288Z,69.31
2023-03-15T18:05:30.783Z,69.48
2023-03-15T18:08:05.459Z,70.01
2023-03-15T18:10:38.709Z,71.10
2023-03-15T18:13:07.709Z,71.48
2023-03-15T18:15:38.066Z,70.75
2023-03-15T18:18:08.234Z,71.12
2023-03-15T18:20:37.077Z,71.23
2023-03-15T18:23:08.269Z,71.56
2023-03-15T18:25:36.666Z,71.91
2023-03-15T18:28:05.807Z,72.20
2023-03-15T18:30:34.262Z,72.01
2023-03-15T18:33:04.213Z,72.08
2023-03-15T18:35:33.774Z,72.61
2023-03-15T18:38:02.586Z,72.42
2023-03-15T18:40:32.665Z,72.64
2023-03-15T18:43:03.713Z,73.23
2023-03-15T18:45:36.343Z,73.34
2023-03-15T18:48:04.856Z,73.55
2023-03-15T18:50:33.939Z,73.88
2023-03-15T18:53:04.003Z,74.01
2023-03-15T18:55:33.973Z,74.22
2023-03-15T18:58:02.114Z,74.19
2023-03-15T19:00:36.247Z,74.09
2023-03-15T19:03:04.798Z,73.98
2023-03-15T19:05:36.360Z,74.35
2023-03-15T19:08:04.251Z,74.60
2023-03-15T19:10:32.439Z,74.46
2023-03-15T19:13:01.236Z,74.23
2023-03-15T19:15:30.381Z,74.58
2023-03-15T19:17:58.475Z,74.77
2023-03-15T19:20:32.960Z,74.81
2023-03-15T19:23:02.181Z,75.05
2023-03-15T19:25:30.452Z,75.58
2023-03-15T19:28:02.664Z,75.39
2023-03-15T19:30:33.079Z,75.59
2023-03-15T19:33:01.758Z,75.40
2023-03-15T19:35:30.998Z,75.58
2023-03-15T19:38:00.650Z,75.53
2023-03-15T19:40:29.291Z,76.31
2023-03-15T19:42:57.985Z,76.34
2023-03-15T19:45:26.484Z,76.09
2023-03-15T19:47:57.456Z,75.83
2023-03-15T19:50:31.235Z,76.19
2023-03-15T19:53:02.021Z,75.78
2023-03-15T19:55:32.102Z,75.95
2023-03-15T19:57:59.763Z,76.16
2023-03-15T20:00:27.718Z,76.23
2023-03-15T20:02:56.167Z,76.93
2023-03-15T20:05:25.924Z,76.39
2023-03-15T20:07:54.684Z,76.02
2023-03-15T20:10:24.054Z,76.11
2023-03-15T20:12:59.212Z,75.84
2023-03-15T20:15:29.390Z,75.54
2023-03-15T20:17:57.906Z,75.72
2023-03-15T20:20:26.346Z,76.46
2023-03-15T20:22:55.526Z,76.45
2023-03-15T20:25:25.582Z,76.29
2023-03-15T20:27:54.050Z,76.48
2023-03-15T20:30:23.144Z,76.33
2023-03-15T20:32:55.036Z,76.12
2023-03-15T20:35:23.483Z,77.09
2023-03-15T20:37:54.138Z,77.30
2023-03-15T20:40:22.378Z,77.52
2023-03-15T20:42:57.151Z,77.33
2023-03-15T20:45:24.954Z,77.24
2023-03-15T20:47:53.480Z,78.24
2023-03-15T20:50:23.560Z,78.53
2023-03-15T20:52:52.328Z,77.80
2023-03-15T20:55:21.529Z,77.82
2023-03-15T20:57:49.786Z,77.75
2023-03-15T21:00:20.465Z,77.71
2023-03-15T21:02:49.913Z,78.03
2023-03-15T21:05:19.223Z,77.91
2023-03-15T21:07:47.638Z,77.89
2023-03-15T21:10:17.143Z,77.73
2023-03-15T21:12:47.345Z,77.98
2023-03-15T21:15:19.863Z,77.67
2023-03-15T21:17:49.889Z,77.93
2023-03-15T21:20:18.637Z,77.84
2023-03-15T21:22:53.853Z,78.05
2023-03-15T21:25:21.920Z,78.64
2023-03-15T21:27:49.755Z,78.75
2023-03-15T21:30:19.268Z,78.49
2023-03-15T21:32:48.072Z,78.10
2023-03-15T21:35:22.474Z,78.06
2023-03-15T21:37:50.873Z,78.19
2023-03-15T21:40:18.761Z,78.64
2023-03-15T21:42:48.029Z,80.19
2023-03-15T21:45:16.831Z,81.29
2023-03-15T21:47:53.080Z,80.41
2023-03-15T21:50:23.616Z,80.57
2023-03-15T21:52:52.139Z,80.50
2023-03-15T21:55:21.107Z,80.00
2023-03-15T21:57:48.953Z,79.25
2023-03-15T22:00:19.925Z,79.25
2023-03-15T22:02:48.245Z,79.27
2023-03-15T22:05:17.041Z,78.73
2023-03-15T22:07:46.901Z,78.61
2023-03-15T22:10:15.938Z,79.09
2023-03-15T22:12:44.425Z,79.78
2023-03-15T22:15:13.683Z,80.32
2023-03-15T22:17:42.300Z,80.43
2023-03-15T22:20:17.005Z,81.07
2023-03-15T22:22:46.543Z,83.21
2023-03-15T22:25:15.003Z,85.62
2023-03-15T22:27:43.537Z,84.55
2023-03-15T22:30:16.135Z,82.85
2023-03-15T22:32:48.383Z,83.50
2023-03-15T22:35:16.732Z,82.43
2023-03-15T22:37:44.918Z,82.27
2023-03-15T22:40:14.821Z,81.79
2023-03-15T22:42:43.377Z,81.61
2023-03-15T22:45:12.148Z,81.43
2023-03-15T22:47:41.885Z,81.12
2023-03-15T22:50:13.578Z,80.84
2023-03-15T22:52:42.233Z,80.13
2023-03-15T22:55:11.979Z,80.06
2023-03-15T22:57:43.075Z,80.58
2023-03-15T23:00:14.178Z,80.22
2023-03-15T23:02:42.989Z,79.70
2023-03-15T23:05:12.717Z,79.68
2023-03-15T23:07:40.989Z,79.19
2023-03-15T23:10:11.748Z,79.02
2023-03-15T23:12:41.543Z,79.18
2023-03-15T23:15:09.904Z,79.44
2023-03-15T23:17:38.531Z,79.47
2023-03-15T23:20:07.644Z,79.27
2023-03-15T23:22:37.971Z,79.03
2023-03-15T23:25:06.260Z,79.14
2023-03-15T23:27:34.326Z,79.21
2023-03-15T23:30:05.672Z,79.10
2023-03-15T23:32:38.040Z,79.06
2023-03-15T23:35:13.050Z,79.67
2023-03-15T23:37:43.316Z,80.05
2023-03-15T23:40:14.058Z,80.63
2023-03-15T23:42:45.520Z,80.29
2023-03-15T23:45:15.509Z,79.84
2023-03-15T23:47:47.222Z,79.53
2023-03-15T23:50:17.586Z,79.48
2023-03-15T23:52:45.610Z,79.23
2023-03-15T23:55:13.643Z,79.37
2023-03-15T23:57:43.509Z,79.26
